createdAt,value
2019-04-11T00:01:36.156Z,94.30
2019-04-11T00:03:55.275Z,94.10
2019-04-11T00:06:25.636Z,94.10
2019-04-11T00:08:56.481Z,94.20
2019-04-11T00:11:26.085Z,94.10
2019-04-11T00:13:55.734Z,94.30
2019-04-11T00:16:25.537Z,94.40
2019-04-11T00:18:55.034Z,94.40
2019-04-11T00:21:24.580Z,94.20
2019-04-11T00:23:54.504Z,94.20
2019-04-11T00:26:24.518Z,94.20
2019-04-11T00:28:54.207Z,94.10
2019-04-11T00:31:23.575Z,94.20
2019-04-11T00:33:52.813Z,94.50
2019-04-11T00:36:22.427Z,94.30
2019-04-11T00:38:51.669Z,94.30
2019-04-11T00:41:21.771Z,94.40
2019-04-11T00:43:52.307Z,94.10
2019-04-11T00:46:22.441Z,94.00
2019-04-11T00:48:52.879Z,94.20
2019-04-11T00:51:23.480Z,94.20
2019-04-11T00:53:53.915Z,94.00
2019-04-11T00:56:24.181Z,94.00
2019-04-11T00:58:54.007Z,93.70
2019-04-11T01:01:23.946Z,93.70
2019-04-11T01:03:53.674Z,93.80
2019-04-11T01:06:23.106Z,94.00
2019-04-11T01:08:53.630Z,94.00
2019-04-11T01:11:23.765Z,94.10
2019-04-11T01:13:55.313Z,93.80
2019-04-11T01:16:34.886Z,93.70
2019-04-11T01:19:04.648Z,93.90
2019-04-11T01:21:34.876Z,94.10
2019-04-11T01:24:04.298Z,94.20
2019-04-11T01:26:33.538Z,94.30
2019-04-11T01:29:03.299Z,94.00
2019-04-11T01:31:33.821Z,94.20
2019-04-11T01:34:04.347Z,94.00
2019-04-11T01:36:33.757Z,93.90
2019-04-11T01:39:05.905Z,93.90
2019-04-11T01:41:36.337Z,94.00
2019-04-11T01:44:07.491Z,94.10
2019-04-11T01:46:36.682Z,94.10
2019-04-11T01:49:17.707Z,93.90
2019-04-11T01:51:47.629Z,93.80
2019-04-11T01:54:17.061Z,94.00
2019-04-11T01:56:47.473Z,94.00
2019-04-11T01:59:17.444Z,94.10
2019-04-11T02:02:03.406Z,94.00
2019-04-11T02:05:04.801Z,94.00
2019-04-11T02:07:34.654Z,94.30
2019-04-11T02:10:04.358Z,94.10
2019-04-11T02:12:33.622Z,94.10
2019-04-11T02:15:03.923Z,93.90
2019-04-11T02:17:33.264Z,93.80
2019-04-11T02:20:02.827Z,93.90
2019-04-11T02:22:40.475Z,94.10
2019-04-11T02:25:32.345Z,93.90
2019-04-11T02:28:02.841Z,93.90
2019-04-11T02:30:33.921Z,93.90
2019-04-11T02:33:04.770Z,93.90
2019-04-11T02:35:35.338Z,93.90
2019-04-11T02:38:04.999Z,93.90
2019-04-11T02:40:34.434Z,94.30
2019-04-11T02:43:04.941Z,93.90
2019-04-11T02:45:46.766Z,93.80
2019-04-11T02:48:09.178Z,93.80
2019-04-11T02:50:38.638Z,93.90
2019-04-11T02:53:09.466Z,93.80
2019-04-11T02:55:39.470Z,93.90
2019-04-11T02:58:10.295Z,93.90
2019-04-11T03:00:40.331Z,94.00
2019-04-11T03:03:10.406Z,93.90
2019-04-11T03:05:41.674Z,93.90
2019-04-11T03:08:14.001Z,93.80
2019-04-11T03:10:42.987Z,93.80
2019-04-11T03:13:12.763Z,94.00
2019-04-11T03:15:57.554Z,94.10
2019-04-11T03:18:34.371Z,94.10
2019-04-11T03:20:50.857Z,94.10
2019-04-11T03:23:18.725Z,94.00
2019-04-11T03:25:47.006Z,94.40
2019-04-11T03:28:22.626Z,94.10
2019-04-11T03:31:18.002Z,94.20
2019-04-11T03:34:12.170Z,94.30
2019-04-11T03:36:36.621Z,94.30
2019-04-11T03:38:42.760Z,94.30
2019-04-11T03:41:12.132Z,94.40
2019-04-11T03:43:34.115Z,94.40
2019-04-11T03:46:16.298Z,94.30
2019-04-11T03:48:40.174Z,94.20
2019-04-11T03:50:58.089Z,94.30
2019-04-11T03:53:29.943Z,94.20
2019-04-11T03:56:01.493Z,94.30
2019-04-11T03:58:31.246Z,94.40
2019-04-11T04:01:05.518Z,94.50
2019-04-11T04:03:34.208Z,94.40
2019-04-11T04:06:04.431Z,94.40
2019-04-11T04:08:34.394Z,94.40
2019-04-11T04:11:22.170Z,94.40
2019-04-11T04:14:10.463Z,94.50
2019-04-11T04:17:01.709Z,94.60
2019-04-11T04:19:43.822Z,94.50
2019-04-11T04:22:24.571Z,94.30
2019-04-11T04:24:55.456Z,94.30
2019-04-11T04:27:26.207Z,94.10
2019-04-11T04:29:57.619Z,94.20
2019-04-11T04:32:28.060Z,94.40
2019-04-11T04:34:58.451Z,94.60
2019-04-11T04:37:29.654Z,94.40
2019-04-11T04:40:21.649Z,94.50
2019-04-11T04:42:39.317Z,94.40
2019-04-11T04:45:05.156Z,94.50
2019-04-11T04:47:42.683Z,94.50
2019-04-11T04:50:08.843Z,94.50
2019-04-11T04:52:38.410Z,94.50
2019-04-11T04:55:08.538Z,94.60
2019-04-11T04:57:38.252Z,94.60
2019-04-11T05:00:09.229Z,94.50
2019-04-11T05:02:41.996Z,94.60
2019-04-11T05:05:11.435Z,94.60
2019-04-11T05:07:43.952Z,94.50
2019-04-11T05:10:13.304Z,94.40
2019-04-11T05:12:43.906Z,94.50
2019-04-11T05:15:14.549Z,94.40
2019-04-11T05:17:46.089Z,94.30
2019-04-11T05:20:16.187Z,94.40
2019-04-11T05:22:45.557Z,94.40
2019-04-11T05:25:15.072Z,94.30
2019-04-11T05:27:45.394Z,94.30
2019-04-11T05:30:14.976Z,94.40
2019-04-11T05:32:45.205Z,94.30
2019-04-11T05:35:14.601Z,94.30
2019-04-11T05:37:45.039Z,94.20
2019-04-11T05:40:15.069Z,94.00
2019-04-11T05:42:45.149Z,94.20
2019-04-11T05:45:19.479Z,94.20
2019-04-11T05:47:49.828Z,94.20
2019-04-11T05:50:28.539Z,93.70
2019-04-11T05:53:01.183Z,94.10
2019-04-11T05:55:32.252Z,94.30
2019-04-11T05:58:05.851Z,94.10
2019-04-11T06:00:55.855Z,94.10
2019-04-11T06:03:26.071Z,93.80
2019-04-11T06:06:09.257Z,93.90
2019-04-11T06:08:39.880Z,93.80
2019-04-11T06:11:31.028Z,93.90
2019-04-11T06:14:28.185Z,93.60
2019-04-11T06:17:01.373Z,93.70
2019-04-11T06:19:53.548Z,93.80
2019-04-11T06:22:23.489Z,94.00
2019-04-11T06:25:11.273Z,94.30
2019-04-11T06:27:47.433Z,94.00
2019-04-11T06:30:35.024Z,93.90
2019-04-11T06:33:22.792Z,94.10
2019-04-11T06:36:23.395Z,93.90
2019-04-11T06:39:18.923Z,94.10
2019-04-11T06:42:14.793Z,94.30
2019-04-11T06:45:02.345Z,94.20
2019-04-11T06:47:49.174Z,94.20
2019-04-11T06:50:49.480Z,94.30
2019-04-11T06:53:23.804Z,94.30
2019-04-11T06:56:30.471Z,94.30
2019-04-11T06:59:03.914Z,94.40
2019-04-11T07:01:34.205Z,94.30
2019-04-11T07:04:11.418Z,94.10
2019-04-11T07:06:42.453Z,94.30
2019-04-11T07:09:32.960Z,94.10
2019-04-11T07:12:06.263Z,94.20
2019-04-11T07:15:04.513Z,94.00
2019-04-11T07:17:52.516Z,94.10
2019-04-11T07:20:46.960Z,94.50
2019-04-11T07:23:34.173Z,94.10
2019-04-11T07:26:12.903Z,94.30
2019-04-11T07:29:04.550Z,94.40
2019-04-11T07:31:46.242Z,94.50
2019-04-11T07:34:39.215Z,94.80
2019-04-11T07:37:32.418Z,95.00
2019-04-11T07:40:24.202Z,94.90
2019-04-11T07:43:22.553Z,94.80
2019-04-11T07:46:25.252Z,94.50
2019-04-11T07:49:01.634Z,94.60
2019-04-11T07:51:32.644Z,94.40
2019-04-11T07:54:04.726Z,94.00
2019-04-11T07:56:56.029Z,94.10
2019-04-11T07:59:35.128Z,93.70
2019-04-11T08:02:24.464Z,93.60
2019-04-11T08:05:11.402Z,93.70
2019-04-11T08:07:59.477Z,93.50
2019-04-11T08:10:33.672Z,93.10
2019-04-11T08:13:07.477Z,93.10
2019-04-11T08:15:54.249Z,93.40
2019-04-11T08:18:43.178Z,93.20
2019-04-11T08:21:32.879Z,93.50
2019-04-11T08:24:04.460Z,93.00
2019-04-11T08:26:52.913Z,92.90
2019-04-11T08:29:22.313Z,92.50
2019-04-11T08:32:09.623Z,92.00
2019-04-11T08:34:46.221Z,92.00
2019-04-11T08:37:33.744Z,91.80
2019-04-11T08:40:03.889Z,92.00
2019-04-11T08:42:51.310Z,91.20
2019-04-11T08:45:22.156Z,91.30
2019-04-11T08:47:55.838Z,91.00
2019-04-11T08:50:28.176Z,91.60
2019-04-11T08:53:06.610Z,91.30
2019-04-11T08:55:48.585Z,91.10
2019-04-11T08:58:20.735Z,91.10
2019-04-11T09:00:55.788Z,91.30
2019-04-11T09:03:33.572Z,90.40
2019-04-11T09:06:08.441Z,90.50
2019-04-11T09:09:00.199Z,90.40
2019-04-11T09:11:36.516Z,90.60
2019-04-11T09:14:39.985Z,90.60
2019-04-11T09:17:31.420Z,90.50
2019-04-11T09:20:25.560Z,90.50
2019-04-11T09:23:03.764Z,90.30
2019-04-11T09:25:53.258Z,90.10
2019-04-11T09:28:37.718Z,90.30
2019-04-11T09:31:27.501Z,90.20
2019-04-11T09:34:15.444Z,90.00
2019-04-11T09:37:07.755Z,89.60
2019-04-11T09:39:43.512Z,89.50
2019-04-11T09:42:40.892Z,89.00
2019-04-11T09:45:27.814Z,88.40
2019-04-11T09:48:19.845Z,87.70
2019-04-11T09:51:08.021Z,88.50
2019-04-11T09:53:38.804Z,87.60
2019-04-11T09:56:25.744Z,88.10
2019-04-11T09:58:56.587Z,87.60
2019-04-11T10:02:00.370Z,86.10
2019-04-11T10:04:31.974Z,86.70
2019-04-11T10:07:21.716Z,86.40
2019-04-11T10:10:12.906Z,86.40
2019-04-11T10:13:00.557Z,86.00
2019-04-11T10:15:43.723Z,86.70
2019-04-11T10:18:40.547Z,86.70
2019-04-11T10:21:09.331Z,85.60
2019-04-11T10:24:20.533Z,85.80
2019-04-11T10:26:58.372Z,85.30
2019-04-11T10:29:48.343Z,85.40
2019-04-11T10:32:21.188Z,85.20
2019-04-11T10:35:10.219Z,84.80
2019-04-11T10:37:42.097Z,85.30
2019-04-11T10:40:32.793Z,84.90
2019-04-11T10:43:02.543Z,85.10
2019-04-11T10:45:55.250Z,84.80
2019-04-11T10:48:38.800Z,84.70
2019-04-11T10:51:27.575Z,84.50
2019-04-11T10:53:57.562Z,84.70
2019-04-11T10:56:36.332Z,84.00
2019-04-11T10:59:05.593Z,83.80
2019-04-11T11:01:53.909Z,82.50
2019-04-11T11:04:32.770Z,83.00
2019-04-11T11:07:10.164Z,82.10
2019-04-11T11:09:50.460Z,81.40
2019-04-11T11:12:35.029Z,81.20
2019-04-11T11:15:27.465Z,81.30
2019-04-11T11:18:38.154Z,81.70
2019-04-11T11:20:58.267Z,81.50
2019-04-11T11:23:42.820Z,80.60
2019-04-11T11:26:33.866Z,78.70
2019-04-11T11:29:37.414Z,79.20
2019-04-11T11:32:21.069Z,78.00
2019-04-11T11:35:15.281Z,75.60
2019-04-11T11:37:55.532Z,76.10
2019-04-11T11:40:44.017Z,76.00
2019-04-11T11:43:25.247Z,74.30
2019-04-11T11:46:14.117Z,75.10
2019-04-11T11:48:57.182Z,74.90
2019-04-11T11:51:51.908Z,73.50
2019-04-11T11:54:33.432Z,71.60
2019-04-11T11:57:06.692Z,72.90
2019-04-11T11:59:40.604Z,73.20
2019-04-11T12:02:17.353Z,71.30
2019-04-11T12:05:11.281Z,69.80
2019-04-11T12:07:43.080Z,68.70
2019-04-11T12:10:26.478Z,71.00
2019-04-11T12:13:14.714Z,68.10
2019-04-11T12:15:54.587Z,67.70
2019-04-11T12:18:35.216Z,63.90
2019-04-11T12:21:06.839Z,65.50
2019-04-11T12:24:02.174Z,65.10
2019-04-11T12:26:30.460Z,66.10
2019-04-11T12:29:15.751Z,65.00
2019-04-11T12:31:50.138Z,62.70
2019-04-11T12:34:45.172Z,65.80
2019-04-11T12:37:25.917Z,63.10
2019-04-11T12:40:17.268Z,64.70
2019-04-11T12:42:46.624Z,63.00
2019-04-11T12:45:38.648Z,64.00
2019-04-11T12:48:11.883Z,64.90
2019-04-11T12:51:07.347Z,63.30
2019-04-11T12:53:36.637Z,64.40
2019-04-11T12:56:34.728Z,62.40
2019-04-11T12:59:07.477Z,62.30
2019-04-11T13:02:08.055Z,62.00
2019-04-11T13:04:44.968Z,60.70
2019-04-11T13:07:33.351Z,62.30
2019-04-11T13:10:29.313Z,62.20
2019-04-11T13:13:20.698Z,59.20
2019-04-11T13:16:11.407Z,59.60
2019-04-11T13:18:52.559Z,60.40
2019-04-11T13:21:32.269Z,58.60
2019-04-11T13:24:23.820Z,59.00
2019-04-11T13:27:11.015Z,58.70
2019-04-11T13:30:05.138Z,60.40
2019-04-11T13:32:47.233Z,60.30
2019-04-11T13:35:39.567Z,61.80
2019-04-11T13:38:11.168Z,61.10
2019-04-11T13:41:02.263Z,61.30
2019-04-11T13:43:54.322Z,59.40
2019-04-11T13:46:48.554Z,60.00
2019-04-11T13:49:35.574Z,58.50
2019-04-11T13:52:30.214Z,59.80
2019-04-11T13:55:08.094Z,59.30
2019-04-11T13:57:59.579Z,60.10
2019-04-11T14:00:48.417Z,59.10
2019-04-11T14:03:49.013Z,59.60
2019-04-11T14:06:37.697Z,60.10
2019-04-11T14:09:39.478Z,60.50
2019-04-11T14:12:16.214Z,62.50
2019-04-11T14:14:57.913Z,59.90
2019-04-11T14:17:41.553Z,60.10
2019-04-11T14:20:30.144Z,61.20
2019-04-11T14:23:24.639Z,60.50
2019-04-11T14:26:12.935Z,61.60
2019-04-11T14:29:07.285Z,62.60
2019-04-11T14:32:07.621Z,60.90
2019-04-11T14:35:05.853Z,62.60
2019-04-11T14:37:48.501Z,62.50
2019-04-11T14:40:36.930Z,62.20
2019-04-11T14:43:26.782Z,61.60
2019-04-11T14:46:24.178Z,59.30
2019-04-11T14:49:05.694Z,62.00
2019-04-11T14:51:54.745Z,61.80
2019-04-11T14:54:28.381Z,60.50
2019-04-11T14:57:11.731Z,60.00
2019-04-11T14:59:44.189Z,62.40
2019-04-11T15:02:21.083Z,61.20
2019-04-11T15:05:18.661Z,63.20
2019-04-11T15:07:48.565Z,61.70
2019-04-11T15:10:48.291Z,62.10
2019-04-11T15:13:19.202Z,63.10
2019-04-11T15:16:16.319Z,63.90
2019-04-11T15:18:51.444Z,64.10
2019-04-11T15:21:52.054Z,64.70
2019-04-11T15:24:22.099Z,64.10
2019-04-11T15:27:10.420Z,65.00
2019-04-11T15:29:40.795Z,65.20
2019-04-11T15:32:32.012Z,65.80
2019-04-11T15:35:04.580Z,66.10
2019-04-11T15:37:50.324Z,67.60
2019-04-11T15:40:38.639Z,66.60
2019-04-11T15:43:42.108Z,66.60
2019-04-11T15:46:17.557Z,66.90
2019-04-11T15:49:05.917Z,66.10
2019-04-11T15:51:36.570Z,66.10
2019-04-11T15:54:25.550Z,67.60
2019-04-11T15:57:16.631Z,67.10
2019-04-11T16:00:08.014Z,66.60
2019-04-11T16:02:56.823Z,67.30
2019-04-11T16:05:54.529Z,67.70
2019-04-11T16:08:44.015Z,66.10
2019-04-11T16:11:31.267Z,66.80
2019-04-11T16:14:04.850Z,67.00
2019-04-11T16:16:50.165Z,65.20
2019-04-11T16:19:37.361Z,65.80
2019-04-11T16:22:37.897Z,66.30
2019-04-11T16:25:11.004Z,65.60
2019-04-11T16:28:11.361Z,66.50
2019-04-11T16:30:49.077Z,65.70
2019-04-11T16:33:40.059Z,66.10
2019-04-11T16:36:16.437Z,65.60
2019-04-11T16:39:05.556Z,65.10
2019-04-11T16:41:53.864Z,65.10
2019-04-11T16:44:33.907Z,65.00
2019-04-11T16:47:26.087Z,65.80
2019-04-11T16:49:57.049Z,66.00
2019-04-11T16:52:27.037Z,67.60
2019-04-11T16:54:56.352Z,68.10
2019-04-11T16:57:25.640Z,68.80
2019-04-11T16:59:54.889Z,68.60
2019-04-11T17:02:24.866Z,68.10
2019-04-11T17:04:55.809Z,68.90
2019-04-11T17:07:53.849Z,68.50
2019-04-11T17:10:42.215Z,69.30
2019-04-11T17:13:11.612Z,69.20
2019-04-11T17:15:40.939Z,69.20
2019-04-11T17:18:10.244Z,69.20
2019-04-11T17:20:39.692Z,69.60
2019-04-11T17:23:09.233Z,69.50
2019-04-11T17:25:38.529Z,70.70
2019-04-11T17:28:09.095Z,70.00
2019-04-11T17:30:40.060Z,70.50
2019-04-11T17:33:09.390Z,70.90
2019-04-11T17:35:38.778Z,71.50
2019-04-11T17:38:08.229Z,71.60
2019-04-11T17:40:39.544Z,71.40
2019-04-11T17:43:08.517Z,72.20
2019-04-11T17:45:37.851Z,71.80
2019-04-11T17:48:07.136Z,72.00
2019-04-11T17:50:36.493Z,73.20
2019-04-11T17:53:08.633Z,73.20
2019-04-11T17:55:37.879Z,73.30
2019-04-11T17:58:07.251Z,74.10
2019-04-11T18:00:39.179Z,74.50
2019-04-11T18:03:11.839Z,75.10
2019-04-11T18:05:39.449Z,75.30
2019-04-11T18:08:08.690Z,74.90
2019-04-11T18:10:38.476Z,75.00
2019-04-11T18:13:08.193Z,75.40
2019-04-11T18:15:37.446Z,75.20
2019-04-11T18:18:06.618Z,75.70
2019-04-11T18:20:37.052Z,75.80
2019-04-11T18:23:07.363Z,76.30
2019-04-11T18:25:36.712Z,75.60
2019-04-11T18:28:06.075Z,76.30
2019-04-11T18:30:35.482Z,76.20
2019-04-11T18:33:04.815Z,76.40
2019-04-11T18:35:34.100Z,76.60
2019-04-11T18:38:03.742Z,76.40
2019-04-11T18:40:33.070Z,77.00
2019-04-11T18:43:02.509Z,77.90
2019-04-11T18:45:31.880Z,77.20
2019-04-11T18:48:01.230Z,76.90
2019-04-11T18:50:30.664Z,77.10
2019-04-11T18:53:00.199Z,77.70
2019-04-11T18:55:29.785Z,77.40
2019-04-11T18:57:59.137Z,77.60
2019-04-11T19:00:29.054Z,77.90
2019-04-11T19:02:58.437Z,77.80
2019-04-11T19:05:29.006Z,78.40
2019-04-11T19:07:58.525Z,78.00
2019-04-11T19:10:27.788Z,78.40
2019-04-11T19:12:57.123Z,78.50
2019-04-11T19:15:26.394Z,78.70
2019-04-11T19:18:06.364Z,78.80
2019-04-11T19:20:26.583Z,79.40
2019-04-11T19:22:55.965Z,79.00
2019-04-11T19:25:25.679Z,79.00
2019-04-11T19:27:57.194Z,78.80
2019-04-11T19:30:26.345Z,79.10
2019-04-11T19:32:56.847Z,78.80
2019-04-11T19:35:26.159Z,79.40
2019-04-11T19:37:56.085Z,79.80
2019-04-11T19:40:25.467Z,79.90
2019-04-11T19:42:54.787Z,79.80
2019-04-11T19:45:24.445Z,79.90
2019-04-11T19:47:53.786Z,80.00
2019-04-11T19:50:30.512Z,80.20
2019-04-11T19:53:02.646Z,80.10
2019-04-11T19:55:52.555Z,80.10
2019-04-11T19:58:24.280Z,80.30
2019-04-11T20:00:54.023Z,80.50
2019-04-11T20:03:24.199Z,80.70
2019-04-11T20:05:54.129Z,80.80
2019-04-11T20:08:23.615Z,80.80
2019-04-11T20:10:52.974Z,81.20
2019-04-11T20:13:22.298Z,82.00
2019-04-11T20:15:51.561Z,82.00
2019-04-11T20:18:22.581Z,81.80
2019-04-11T20:20:52.425Z,82.80
2019-04-11T20:23:21.713Z,82.20
2019-04-11T20:25:51.024Z,82.40
2019-04-11T20:28:20.867Z,82.40
2019-04-11T20:30:50.396Z,82.50
2019-04-11T20:33:27.078Z,82.50
2019-04-11T20:35:50.646Z,82.70
2019-04-11T20:38:20.336Z,82.90
2019-04-11T20:40:52.458Z,82.90
2019-04-11T20:43:24.416Z,83.00
2019-04-11T20:45:53.384Z,83.10
2019-04-11T20:48:22.899Z,83.30
2019-04-11T20:50:52.215Z,83.30
2019-04-11T20:53:21.533Z,83.70
2019-04-11T20:55:51.006Z,83.80
2019-04-11T20:58:27.149Z,83.50
2019-04-11T21:00:55.696Z,83.70
2019-04-11T21:03:22.231Z,83.70
2019-04-11T21:05:51.698Z,83.80
2019-04-11T21:08:22.739Z,84.00
2019-04-11T21:10:53.149Z,84.00
2019-04-11T21:13:22.958Z,84.50
2019-04-11T21:15:52.276Z,84.40
2019-04-11T21:18:25.663Z,85.00
2019-04-11T21:20:55.237Z,84.90
2019-04-11T21:23:24.934Z,85.00
2019-04-11T21:25:58.833Z,84.70
2019-04-11T21:28:27.869Z,85.00
2019-04-11T21:30:59.847Z,84.80
2019-04-11T21:33:28.302Z,84.90
2019-04-11T21:36:01.396Z,84.90
2019-04-11T21:38:31.502Z,85.00
2019-04-11T21:41:05.896Z,85.20
2019-04-11T21:43:35.893Z,85.20
2019-04-11T21:46:04.084Z,85.50
2019-04-11T21:48:35.943Z,85.20
2019-04-11T21:51:05.704Z,85.10
2019-04-11T21:53:36.852Z,85.10
2019-04-11T21:56:06.684Z,85.30
2019-04-11T21:58:35.953Z,85.60
2019-04-11T22:01:09.825Z,85.40
2019-04-11T22:03:39.069Z,85.70
2019-04-11T22:06:08.377Z,85.70
2019-04-11T22:08:37.716Z,85.40
2019-04-11T22:11:09.879Z,85.90
2019-04-11T22:13:40.411Z,85.90
2019-04-11T22:16:13.470Z,86.10
2019-04-11T22:18:39.998Z,86.20
2019-04-11T22:21:09.317Z,86.70
2019-04-11T22:23:48.257Z,86.90
2019-04-11T22:26:09.408Z,86.90
2019-04-11T22:28:38.718Z,87.00
2019-04-11T22:31:08.048Z,87.10
2019-04-11T22:33:47.843Z,87.10
2019-04-11T22:36:17.185Z,87.40
2019-04-11T22:38:46.418Z,87.30
2019-04-11T22:41:15.651Z,87.40
2019-04-11T22:43:44.918Z,87.40
2019-04-11T22:46:20.553Z,87.50
2019-04-11T22:48:45.431Z,87.80
2019-04-11T22:51:14.702Z,87.70
2019-04-11T22:53:44.048Z,87.70
2019-04-11T22:56:13.293Z,87.60
2019-04-11T22:58:43.733Z,87.70
2019-04-11T23:01:14.033Z,88.10
2019-04-11T23:03:48.225Z,88.10
2019-04-11T23:06:17.796Z,88.30
2019-04-11T23:08:49.076Z,88.30
2019-04-11T23:11:17.876Z,88.50
2019-04-11T23:13:47.248Z,88.40
2019-04-11T23:16:16.487Z,88.50
2019-04-11T23:18:45.716Z,88.70
2019-04-11T23:21:15.378Z,89.00
2019-04-11T23:23:44.699Z,88.80
2019-04-11T23:26:14.017Z,88.80
2019-04-11T23:28:45.893Z,88.70
2019-04-11T23:31:14.526Z,89.20
2019-04-11T23:33:43.829Z,89.00
2019-04-11T23:36:13.144Z,89.40
2019-04-11T23:38:42.502Z,89.80
2019-04-11T23:41:11.730Z,89.60
2019-04-11T23:43:41.044Z,89.60
2019-04-11T23:46:10.353Z,89.60
2019-04-11T23:48:39.610Z,89.60
2019-04-11T23:51:08.832Z,89.70
2019-04-11T23:53:38.069Z,89.90
2019-04-11T23:56:07.395Z,89.80
2019-04-11T23:58:36.944Z,89.90
